RPLL/MNL METAR and TAF weather

Enter ICAO airport designator
Station Type Date Time Source
RPLL METAR 2021/05/14 07:00 UTC NOAA

RPLL 140700Z 13010G20KT 090V210 9999 FEW025 35/24 Q1007 NOSIG RMK A2974


Station Type Date Time Source
RPLL Decoded METAR 2021/05/14 07:00 UTC NOAA

Ninoy Aquino Inter-National Airport, Philippines (RPLL) 14-31N 121-00E 15M
May 14, 2021 - 03:00 AM EDT / 2021.05.14 0700 UTC
Wind: from the SE (130 degrees) at 12 MPH (10 KT) gusting to 23 MPH (20 KT) (direction variable):0
Visibility: greater than 7 mile(s):0
Sky conditions: mostly clear
Temperature: 95 F (35 C)
Heat index: 107.4 F (41.9 C):1
Dew Point: 75 F (24 C)
Relative Humidity: 53%
Pressure (altimeter): 29.74 in. Hg (1007 hPa)
ob: RPLL 140700Z 13010G20KT 090V210 9999 FEW025 35/24 Q1007 NOSIG RMK A2974
cycle: 7

Station Type Date Time Source
RPLL TAF 2021/05/14 06:03 UTC NOAA

TAF RPLL 140500Z 1406/1512 11007KT 9999 FEW025 SCT100 TX35/1406Z TN29/1421Z
TEMPO 1406/1412 13012KT SCT025
TEMPO 1412/1418 10010KT FEW030

Example: see airport list